Terminal Aerodrome Forecast
Issued by NWS Brownsville, TX

Home | Current Version | Previous Version | Text Only | Print | Product List | Glossary On
Versions: 1 2 3 4 5 6 7 8 9 10 11 12 13 14 15 16 17
000
FTUS44 KBRO 251738
TAFMFE
TAF
KMFE 251738Z 2518/2618 34008KT 5SM HZ BKN040
     FM260000 07007KT P6SM BKN030
     FM260300 10005KT 5SM BR BKN015=

USA.gov is the U.S. government's official web portal to all federal, state and local government web resources and services.